sensor_id;sensor_type;location;lat;lon;timestamp;temperature;humidity
20141;DHT22;10231;47.702;9.826;2023-12-14T00:00:05;5.90;99.90
20141;DHT22;10231;47.702;9.826;2023-12-14T00:02:30;5.90;99.90
20141;DHT22;10231;47.702;9.826;2023-12-14T00:04:56;5.90;99.90
20141;DHT22;10231;47.702;9.826;2023-12-14T00:07:21;5.90;99.90
20141;DHT22;10231;47.702;9.826;2023-12-14T00:09:47;5.90;99.90
20141;DHT22;10231;47.702;9.826;2023-12-14T00:12:12;5.90;99.90
20141;DHT22;10231;47.702;9.826;2023-12-14T00:14:38;5.90;99.90
20141;DHT22;10231;47.702;9.826;2023-12-14T00:17:03;5.90;99.90
20141;DHT22;10231;47.702;9.826;2023-12-14T00:19:29;5.90;99.90
20141;DHT22;10231;47.702;9.826;2023-12-14T00:21:54;5.90;99.90
20141;DHT22;10231;47.702;9.826;2023-12-14T00:24:20;6.00;99.90
20141;DHT22;10231;47.702;9.826;2023-12-14T00:26:45;5.90;99.90
20141;DHT22;10231;47.702;9.826;2023-12-14T00:29:11;5.90;99.90
20141;DHT22;10231;47.702;9.826;2023-12-14T00:31:36;5.90;99.90
20141;DHT22;10231;47.702;9.826;2023-12-14T00:34:02;5.80;99.90
20141;DHT22;10231;47.702;9.826;2023-12-14T00:36:28;5.80;99.90
20141;DHT22;10231;47.702;9.826;2023-12-14T00:38:54;5.80;99.90
20141;DHT22;10231;47.702;9.826;2023-12-14T00:41:20;5.70;99.90
20141;DHT22;10231;47.702;9.826;2023-12-14T00:43:46;5.70;99.90
20141;DHT22;10231;47.702;9.826;2023-12-14T00:46:12;5.70;99.90
20141;DHT22;10231;47.702;9.826;2023-12-14T00:48:37;5.70;99.90
20141;DHT22;10231;47.702;9.826;2023-12-14T00:51:03;5.70;99.90
20141;DHT22;10231;47.702;9.826;2023-12-14T00:53:28;5.70;99.90
20141;DHT22;10231;47.702;9.826;2023-12-14T00:55:54;5.70;99.90
20141;DHT22;10231;47.702;9.826;2023-12-14T00:58:19;5.70;99.90
20141;DHT22;10231;47.702;9.826;2023-12-14T01:00:46;5.70;99.90
20141;DHT22;10231;47.702;9.826;2023-12-14T01:03:11;5.70;99.90
20141;DHT22;10231;47.702;9.826;2023-12-14T01:05:37;5.70;99.90
20141;DHT22;10231;47.702;9.826;2023-12-14T01:08:02;5.70;99.90
20141;DHT22;10231;47.702;9.826;2023-12-14T01:10:28;5.80;99.90
20141;DHT22;10231;47.702;9.826;2023-12-14T01:12:53;5.80;99.90
20141;DHT22;10231;47.702;9.826;2023-12-14T01:15:19;5.80;99.90
20141;DHT22;10231;47.702;9.826;2023-12-14T01:17:44;5.90;99.90
20141;DHT22;10231;47.702;9.826;2023-12-14T01:20:10;5.90;99.90
20141;DHT22;10231;47.702;9.826;2023-12-14T01:22:36;5.90;99.90
20141;DHT22;10231;47.702;9.826;2023-12-14T01:25:02;5.90;99.90
20141;DHT22;10231;47.702;9.826;2023-12-14T01:27:27;5.90;99.90
20141;DHT22;10231;47.702;9.826;2023-12-14T01:29:53;6.00;99.90
20141;DHT22;10231;47.702;9.826;2023-12-14T01:32:19;6.00;99.90
20141;DHT22;10231;47.702;9.826;2023-12-14T01:34:44;6.00;99.90
20141;DHT22;10231;47.702;9.826;2023-12-14T01:37:10;5.90;99.90
20141;DHT22;10231;47.702;9.826;2023-12-14T01:39:35;6.00;99.90
20141;DHT22;10231;47.702;9.826;2023-12-14T01:42:01;5.90;99.90
20141;DHT22;10231;47.702;9.826;2023-12-14T01:44:26;5.90;99.90
20141;DHT22;10231;47.702;9.826;2023-12-14T01:46:52;5.80;99.90
20141;DHT22;10231;47.702;9.826;2023-12-14T01:49:18;5.70;99.90
20141;DHT22;10231;47.702;9.826;2023-12-14T01:51:43;5.70;99.90
20141;DHT22;10231;47.702;9.826;2023-12-14T01:54:09;5.70;99.90
20141;DHT22;10231;47.702;9.826;2023-12-14T01:56:34;5.60;99.90
20141;DHT22;10231;47.702;9.826;2023-12-14T01:59:00;5.60;99.90
20141;DHT22;10231;47.702;9.826;2023-12-14T02:01:55;5.50;99.90
20141;DHT22;10231;47.702;9.826;2023-12-14T02:04:22;5.50;99.90
20141;DHT22;10231;47.702;9.826;2023-12-14T02:06:48;5.50;99.90
20141;DHT22;10231;47.702;9.826;2023-12-14T02:09:14;5.60;99.90
20141;DHT22;10231;47.702;9.826;2023-12-14T02:11:39;5.60;99.90
20141;DHT22;10231;47.702;9.826;2023-12-14T02:14:12;5.50;99.90
20141;DHT22;10231;47.702;9.826;2023-12-14T02:16:37;5.50;99.90
20141;DHT22;10231;47.702;9.826;2023-12-14T02:19:04;5.50;99.90
20141;DHT22;10231;47.702;9.826;2023-12-14T02:21:30;5.40;99.90
20141;DHT22;10231;47.702;9.826;2023-12-14T02:23:55;5.40;99.90
20141;DHT22;10231;47.702;9.826;2023-12-14T02:26:21;5.40;99.90
20141;DHT22;10231;47.702;9.826;2023-12-14T02:28:46;5.40;99.90
20141;DHT22;10231;47.702;9.826;2023-12-14T02:31:12;5.40;99.90
20141;DHT22;10231;47.702;9.826;2023-12-14T02:33:37;5.40;99.90
20141;DHT22;10231;47.702;9.826;2023-12-14T02:36:03;5.40;99.90
20141;DHT22;10231;47.702;9.826;2023-12-14T02:38:29;5.40;99.90
20141;DHT22;10231;47.702;9.826;2023-12-14T02:40:55;5.40;99.90
20141;DHT22;10231;47.702;9.826;2023-12-14T02:43:20;5.40;99.90
20141;DHT22;10231;47.702;9.826;2023-12-14T02:45:46;5.30;99.90
20141;DHT22;10231;47.702;9.826;2023-12-14T02:48:12;5.30;99.90
20141;DHT22;10231;47.702;9.826;2023-12-14T02:50:38;5.30;99.90
20141;DHT22;10231;47.702;9.826;2023-12-14T02:53:03;5.30;99.90
20141;DHT22;10231;47.702;9.826;2023-12-14T02:55:29;5.40;99.90
20141;DHT22;10231;47.702;9.826;2023-12-14T02:57:54;5.30;99.90
20141;DHT22;10231;47.702;9.826;2023-12-14T03:00:20;5.40;99.90
20141;DHT22;10231;47.702;9.826;2023-12-14T03:02:46;5.40;99.90
20141;DHT22;10231;47.702;9.826;2023-12-14T03:05:11;5.40;99.90
20141;DHT22;10231;47.702;9.826;2023-12-14T03:07:37;5.40;99.90
20141;DHT22;10231;47.702;9.826;2023-12-14T03:10:03;5.40;99.90
20141;DHT22;10231;47.702;9.826;2023-12-14T03:12:29;5.40;99.90
20141;DHT22;10231;47.702;9.826;2023-12-14T03:14:55;5.40;99.90
20141;DHT22;10231;47.702;9.826;2023-12-14T03:17:20;5.40;99.90
20141;DHT22;10231;47.702;9.826;2023-12-14T03:19:46;5.40;99.90
20141;DHT22;10231;47.702;9.826;2023-12-14T03:22:12;5.40;99.90
20141;DHT22;10231;47.702;9.826;2023-12-14T03:24:38;5.40;99.90
20141;DHT22;10231;47.702;9.826;2023-12-14T03:27:04;5.40;99.90
20141;DHT22;10231;47.702;9.826;2023-12-14T03:29:29;5.40;99.90
20141;DHT22;10231;47.702;9.826;2023-12-14T03:31:55;5.40;99.90
20141;DHT22;10231;47.702;9.826;2023-12-14T03:34:21;5.40;99.90
20141;DHT22;10231;47.702;9.826;2023-12-14T03:36:47;5.40;99.90
20141;DHT22;10231;47.702;9.826;2023-12-14T03:39:12;5.40;99.90
20141;DHT22;10231;47.702;9.826;2023-12-14T03:41:38;5.50;99.90
20141;DHT22;10231;47.702;9.826;2023-12-14T03:44:03;5.40;99.90
20141;DHT22;10231;47.702;9.826;2023-12-14T03:46:29;5.50;99.90
20141;DHT22;10231;47.702;9.826;2023-12-14T03:48:55;5.50;99.90
20141;DHT22;10231;47.702;9.826;2023-12-14T03:51:20;5.40;99.90
20141;DHT22;10231;47.702;9.826;2023-12-14T03:53:46;5.40;99.90
20141;DHT22;10231;47.702;9.826;2023-12-14T03:56:12;5.30;99.90
20141;DHT22;10231;47.702;9.826;2023-12-14T03:58:37;5.40;99.90
20141;DHT22;10231;47.702;9.826;2023-12-14T04:01:03;5.40;99.90
20141;DHT22;10231;47.702;9.826;2023-12-14T04:03:29;5.40;99.90
20141;DHT22;10231;47.702;9.826;2023-12-14T04:05:54;5.40;99.90
20141;DHT22;10231;47.702;9.826;2023-12-14T04:08:20;5.40;99.90
20141;DHT22;10231;47.702;9.826;2023-12-14T04:10:45;5.40;99.90
20141;DHT22;10231;47.702;9.826;2023-12-14T04:13:11;5.40;99.90
20141;DHT22;10231;47.702;9.826;2023-12-14T04:15:36;5.40;99.90
20141;DHT22;10231;47.702;9.826;2023-12-14T04:18:02;5.40;99.90
20141;DHT22;10231;47.702;9.826;2023-12-14T04:20:28;5.40;99.90
20141;DHT22;10231;47.702;9.826;2023-12-14T04:22:54;5.40;99.90
20141;DHT22;10231;47.702;9.826;2023-12-14T04:25:20;5.50;99.90
20141;DHT22;10231;47.702;9.826;2023-12-14T04:27:45;5.50;99.90
20141;DHT22;10231;47.702;9.826;2023-12-14T04:30:11;5.40;99.90
20141;DHT22;10231;47.702;9.826;2023-12-14T04:32:38;5.50;99.90
20141;DHT22;10231;47.702;9.826;2023-12-14T04:35:04;5.50;99.90
20141;DHT22;10231;47.702;9.826;2023-12-14T04:37:30;5.50;99.90
20141;DHT22;10231;47.702;9.826;2023-12-14T04:39:57;5.60;99.90
20141;DHT22;10231;47.702;9.826;2023-12-14T04:42:22;5.60;99.90
20141;DHT22;10231;47.702;9.826;2023-12-14T04:44:48;5.50;99.90
20141;DHT22;10231;47.702;9.826;2023-12-14T04:47:13;5.50;99.90
20141;DHT22;10231;47.702;9.826;2023-12-14T04:49:39;5.60;99.90
20141;DHT22;10231;47.702;9.826;2023-12-14T04:52:05;5.50;99.90
20141;DHT22;10231;47.702;9.826;2023-12-14T04:54:30;5.60;99.90
20141;DHT22;10231;47.702;9.826;2023-12-14T04:56:56;5.60;99.90
20141;DHT22;10231;47.702;9.826;2023-12-14T04:59:21;5.60;99.90
20141;DHT22;10231;47.702;9.826;2023-12-14T05:01:47;5.50;99.90
20141;DHT22;10231;47.702;9.826;2023-12-14T05:04:12;5.50;99.90
20141;DHT22;10231;47.702;9.826;2023-12-14T05:06:38;5.50;99.90
20141;DHT22;10231;47.702;9.826;2023-12-14T05:09:04;5.50;99.90
20141;DHT22;10231;47.702;9.826;2023-12-14T05:11:31;5.40;99.90
20141;DHT22;10231;47.702;9.826;2023-12-14T05:13:57;5.40;99.90
20141;DHT22;10231;47.702;9.826;2023-12-14T05:16:23;5.40;99.90
20141;DHT22;10231;47.702;9.826;2023-12-14T05:18:52;5.40;99.90
20141;DHT22;10231;47.702;9.826;2023-12-14T05:21:18;5.40;99.90
20141;DHT22;10231;47.702;9.826;2023-12-14T05:23:44;5.40;99.90
20141;DHT22;10231;47.702;9.826;2023-12-14T05:26:09;5.40;99.90
20141;DHT22;10231;47.702;9.826;2023-12-14T05:28:35;5.40;99.90
20141;DHT22;10231;47.702;9.826;2023-12-14T05:31:00;5.40;99.90
20141;DHT22;10231;47.702;9.826;2023-12-14T05:33:26;5.50;99.90
20141;DHT22;10231;47.702;9.826;2023-12-14T05:35:52;5.40;99.90
20141;DHT22;10231;47.702;9.826;2023-12-14T05:38:17;5.40;99.90
20141;DHT22;10231;47.702;9.826;2023-12-14T05:40:43;5.30;99.90
20141;DHT22;10231;47.702;9.826;2023-12-14T05:43:09;5.40;99.90
20141;DHT22;10231;47.702;9.826;2023-12-14T05:45:35;5.40;99.90
20141;DHT22;10231;47.702;9.826;2023-12-14T05:48:01;5.40;99.90
20141;DHT22;10231;47.702;9.826;2023-12-14T05:50:27;5.30;99.90
20141;DHT22;10231;47.702;9.826;2023-12-14T05:52:53;5.30;99.90
20141;DHT22;10231;47.702;9.826;2023-12-14T05:55:19;5.30;99.90
20141;DHT22;10231;47.702;9.826;2023-12-14T05:57:50;4.70;99.90
20141;DHT22;10231;47.702;9.826;2023-12-14T06:00:17;5.20;99.90
20141;DHT22;10231;47.702;9.826;2023-12-14T06:02:43;5.20;99.90
20141;DHT22;10231;47.702;9.826;2023-12-14T06:05:09;5.20;99.90
20141;DHT22;10231;47.702;9.826;2023-12-14T06:07:34;5.20;99.90
20141;DHT22;10231;47.702;9.826;2023-12-14T06:10:00;5.20;99.90
20141;DHT22;10231;47.702;9.826;2023-12-14T06:12:27;5.20;99.90
20141;DHT22;10231;47.702;9.826;2023-12-14T06:14:52;5.20;99.90
20141;DHT22;10231;47.702;9.826;2023-12-14T06:17:18;5.20;99.90
20141;DHT22;10231;47.702;9.826;2023-12-14T06:19:43;5.20;99.90
20141;DHT22;10231;47.702;9.826;2023-12-14T06:22:09;5.30;99.90
20141;DHT22;10231;47.702;9.826;2023-12-14T06:24:34;5.30;99.90
20141;DHT22;10231;47.702;9.826;2023-12-14T06:27:00;5.30;99.90
20141;DHT22;10231;47.702;9.826;2023-12-14T06:29:25;5.20;99.90
20141;DHT22;10231;47.702;9.826;2023-12-14T06:31:51;5.30;99.90
20141;DHT22;10231;47.702;9.826;2023-12-14T06:34:17;5.20;99.90
20141;DHT22;10231;47.702;9.826;2023-12-14T06:36:44;5.20;99.90
20141;DHT22;10231;47.702;9.826;2023-12-14T06:39:10;5.20;99.90
20141;DHT22;10231;47.702;9.826;2023-12-14T06:41:36;5.20;99.90
20141;DHT22;10231;47.702;9.826;2023-12-14T06:44:01;5.30;99.90
20141;DHT22;10231;47.702;9.826;2023-12-14T06:46:27;5.30;99.90
20141;DHT22;10231;47.702;9.826;2023-12-14T06:48:53;5.40;99.90
20141;DHT22;10231;47.702;9.826;2023-12-14T06:51:19;5.30;99.90
20141;DHT22;10231;47.702;9.826;2023-12-14T06:53:45;5.30;99.90
20141;DHT22;10231;47.702;9.826;2023-12-14T06:56:11;5.30;99.90
20141;DHT22;10231;47.702;9.826;2023-12-14T06:58:41;5.30;99.90
20141;DHT22;10231;47.702;9.826;2023-12-14T07:01:07;5.20;99.90
20141;DHT22;10231;47.702;9.826;2023-12-14T07:03:33;5.20;99.90
20141;DHT22;10231;47.702;9.826;2023-12-14T07:05:58;5.20;99.90
20141;DHT22;10231;47.702;9.826;2023-12-14T07:08:24;5.20;99.90
20141;DHT22;10231;47.702;9.826;2023-12-14T07:10:50;5.20;99.90
20141;DHT22;10231;47.702;9.826;2023-12-14T07:13:15;5.20;99.90
20141;DHT22;10231;47.702;9.826;2023-12-14T07:15:41;5.20;99.90
20141;DHT22;10231;47.702;9.826;2023-12-14T07:18:07;5.20;99.90
20141;DHT22;10231;47.702;9.826;2023-12-14T07:20:32;5.20;99.90
20141;DHT22;10231;47.702;9.826;2023-12-14T07:22:58;5.20;99.90
20141;DHT22;10231;47.702;9.826;2023-12-14T07:25:23;5.10;99.90
20141;DHT22;10231;47.702;9.826;2023-12-14T07:27:49;5.10;99.90
20141;DHT22;10231;47.702;9.826;2023-12-14T07:30:14;5.10;99.90
20141;DHT22;10231;47.702;9.826;2023-12-14T07:32:40;5.10;99.90
20141;DHT22;10231;47.702;9.826;2023-12-14T07:35:06;5.10;99.90
20141;DHT22;10231;47.702;9.826;2023-12-14T07:37:32;5.20;99.90
20141;DHT22;10231;47.702;9.826;2023-12-14T07:39:57;5.20;99.90
20141;DHT22;10231;47.702;9.826;2023-12-14T07:42:25;5.20;99.90
20141;DHT22;10231;47.702;9.826;2023-12-14T07:44:51;5.20;99.90
20141;DHT22;10231;47.702;9.826;2023-12-14T07:47:17;5.20;99.90
20141;DHT22;10231;47.702;9.826;2023-12-14T07:49:42;5.30;99.90
20141;DHT22;10231;47.702;9.826;2023-12-14T07:52:08;5.20;99.90
20141;DHT22;10231;47.702;9.826;2023-12-14T07:54:35;5.20;99.90
20141;DHT22;10231;47.702;9.826;2023-12-14T07:57:00;5.20;99.90
20141;DHT22;10231;47.702;9.826;2023-12-14T07:59:26;5.20;99.90
20141;DHT22;10231;47.702;9.826;2023-12-14T08:01:51;5.20;99.90
20141;DHT22;10231;47.702;9.826;2023-12-14T08:04:17;5.30;99.90
20141;DHT22;10231;47.702;9.826;2023-12-14T08:06:42;5.30;99.90
20141;DHT22;10231;47.702;9.826;2023-12-14T08:09:08;5.20;99.90
20141;DHT22;10231;47.702;9.826;2023-12-14T08:11:34;5.30;99.90
20141;DHT22;10231;47.702;9.826;2023-12-14T08:13:59;5.30;99.90
20141;DHT22;10231;47.702;9.826;2023-12-14T08:16:25;5.40;99.90
20141;DHT22;10231;47.702;9.826;2023-12-14T08:18:51;5.30;99.90
20141;DHT22;10231;47.702;9.826;2023-12-14T08:21:17;5.30;99.90
20141;DHT22;10231;47.702;9.826;2023-12-14T08:23:44;5.30;99.90
20141;DHT22;10231;47.702;9.826;2023-12-14T08:26:09;5.50;99.90
20141;DHT22;10231;47.702;9.826;2023-12-14T08:28:37;5.40;99.90
20141;DHT22;10231;47.702;9.826;2023-12-14T08:31:03;5.40;99.90
20141;DHT22;10231;47.702;9.826;2023-12-14T08:33:29;5.40;99.90
20141;DHT22;10231;47.702;9.826;2023-12-14T08:35:55;5.40;99.90
20141;DHT22;10231;47.702;9.826;2023-12-14T08:38:21;5.40;99.90
20141;DHT22;10231;47.702;9.826;2023-12-14T08:40:46;5.40;99.90
20141;DHT22;10231;47.702;9.826;2023-12-14T08:43:12;5.40;99.90
20141;DHT22;10231;47.702;9.826;2023-12-14T08:45:38;5.40;99.90
20141;DHT22;10231;47.702;9.826;2023-12-14T08:48:04;5.40;99.90
20141;DHT22;10231;47.702;9.826;2023-12-14T08:50:29;5.30;99.90
20141;DHT22;10231;47.702;9.826;2023-12-14T08:52:55;5.30;99.90
20141;DHT22;10231;47.702;9.826;2023-12-14T08:55:20;5.40;99.90
20141;DHT22;10231;47.702;9.826;2023-12-14T08:57:47;5.40;99.90
20141;DHT22;10231;47.702;9.826;2023-12-14T09:00:13;5.50;99.90
20141;DHT22;10231;47.702;9.826;2023-12-14T09:02:39;5.40;99.90
20141;DHT22;10231;47.702;9.826;2023-12-14T09:05:04;5.40;99.90
20141;DHT22;10231;47.702;9.826;2023-12-14T09:07:31;5.50;99.90
20141;DHT22;10231;47.702;9.826;2023-12-14T09:09:56;5.50;99.90
20141;DHT22;10231;47.702;9.826;2023-12-14T09:12:22;5.50;99.90
20141;DHT22;10231;47.702;9.826;2023-12-14T09:14:48;5.50;99.90
20141;DHT22;10231;47.702;9.826;2023-12-14T09:17:13;5.50;99.90
20141;DHT22;10231;47.702;9.826;2023-12-14T09:19:39;5.50;99.90
20141;DHT22;10231;47.702;9.826;2023-12-14T09:22:04;5.50;99.90
20141;DHT22;10231;47.702;9.826;2023-12-14T09:24:30;5.40;99.90
20141;DHT22;10231;47.702;9.826;2023-12-14T09:26:56;5.50;99.90
20141;DHT22;10231;47.702;9.826;2023-12-14T09:29:21;5.50;99.90
20141;DHT22;10231;47.702;9.826;2023-12-14T09:31:47;5.50;99.90
20141;DHT22;10231;47.702;9.826;2023-12-14T09:34:12;5.50;99.90
20141;DHT22;10231;47.702;9.826;2023-12-14T09:36:39;5.50;99.90
20141;DHT22;10231;47.702;9.826;2023-12-14T09:39:04;5.50;99.90
20141;DHT22;10231;47.702;9.826;2023-12-14T09:41:31;5.50;99.90
20141;DHT22;10231;47.702;9.826;2023-12-14T09:43:56;5.50;99.90
20141;DHT22;10231;47.702;9.826;2023-12-14T09:46:24;5.50;99.90
20141;DHT22;10231;47.702;9.826;2023-12-14T09:48:51;5.50;99.90
20141;DHT22;10231;47.702;9.826;2023-12-14T09:51:17;5.50;99.90
20141;DHT22;10231;47.702;9.826;2023-12-14T09:53:43;5.60;99.90
20141;DHT22;10231;47.702;9.826;2023-12-14T09:56:08;5.60;99.90
20141;DHT22;10231;47.702;9.826;2023-12-14T09:58:34;5.60;99.90
20141;DHT22;10231;47.702;9.826;2023-12-14T10:01:00;5.50;99.90
20141;DHT22;10231;47.702;9.826;2023-12-14T10:03:30;5.50;99.90
20141;DHT22;10231;47.702;9.826;2023-12-14T10:05:58;5.50;99.90
20141;DHT22;10231;47.702;9.826;2023-12-14T10:08:27;5.40;99.90
20141;DHT22;10231;47.702;9.826;2023-12-14T10:10:54;5.50;99.90
20141;DHT22;10231;47.702;9.826;2023-12-14T10:13:42;5.50;99.90
20141;DHT22;10231;47.702;9.826;2023-12-14T10:16:07;5.50;99.90
20141;DHT22;10231;47.702;9.826;2023-12-14T10:18:33;5.50;99.90
20141;DHT22;10231;47.702;9.826;2023-12-14T10:21:02;5.50;99.90
20141;DHT22;10231;47.702;9.826;2023-12-14T10:23:28;5.60;99.90
20141;DHT22;10231;47.702;9.826;2023-12-14T10:25:53;5.60;99.90
20141;DHT22;10231;47.702;9.826;2023-12-14T10:28:19;5.60;99.90
20141;DHT22;10231;47.702;9.826;2023-12-14T10:30:44;5.60;99.90
20141;DHT22;10231;47.702;9.826;2023-12-14T10:33:10;5.60;99.90
20141;DHT22;10231;47.702;9.826;2023-12-14T10:35:36;5.60;99.90
20141;DHT22;10231;47.702;9.826;2023-12-14T10:38:04;5.60;99.90
20141;DHT22;10231;47.702;9.826;2023-12-14T10:40:31;5.60;99.90
20141;DHT22;10231;47.702;9.826;2023-12-14T10:42:59;5.60;99.90
20141;DHT22;10231;47.702;9.826;2023-12-14T10:45:29;5.60;99.90
20141;DHT22;10231;47.702;9.826;2023-12-14T10:47:56;5.60;99.90
20141;DHT22;10231;47.702;9.826;2023-12-14T10:50:24;5.60;99.90
20141;DHT22;10231;47.702;9.826;2023-12-14T10:52:50;5.60;99.90
20141;DHT22;10231;47.702;9.826;2023-12-14T10:55:23;5.60;99.90
20141;DHT22;10231;47.702;9.826;2023-12-14T10:57:52;5.60;99.90
20141;DHT22;10231;47.702;9.826;2023-12-14T11:00:18;5.70;99.90
20141;DHT22;10231;47.702;9.826;2023-12-14T11:02:46;5.60;99.90
20141;DHT22;10231;47.702;9.826;2023-12-14T11:05:14;5.60;99.90
20141;DHT22;10231;47.702;9.826;2023-12-14T11:07:45;5.60;99.90
20141;DHT22;10231;47.702;9.826;2023-12-14T11:10:11;5.70;99.90
20141;DHT22;10231;47.702;9.826;2023-12-14T11:13:02;5.70;99.90
20141;DHT22;10231;47.702;9.826;2023-12-14T11:15:30;5.70;99.90
20141;DHT22;10231;47.702;9.826;2023-12-14T11:23:26;5.80;99.90
20141;DHT22;10231;47.702;9.826;2023-12-14T11:25:53;5.80;99.90
20141;DHT22;10231;47.702;9.826;2023-12-14T11:28:22;5.80;99.90
20141;DHT22;10231;47.702;9.826;2023-12-14T11:30:48;5.80;99.90
20141;DHT22;10231;47.702;9.826;2023-12-14T11:33:14;5.70;99.90
20141;DHT22;10231;47.702;9.826;2023-12-14T11:35:41;5.70;99.90
20141;DHT22;10231;47.702;9.826;2023-12-14T11:38:07;5.70;99.90
20141;DHT22;10231;47.702;9.826;2023-12-14T11:40:44;5.70;99.90
20141;DHT22;10231;47.702;9.826;2023-12-14T11:43:09;5.70;99.90
20141;DHT22;10231;47.702;9.826;2023-12-14T11:45:38;5.70;99.90
20141;DHT22;10231;47.702;9.826;2023-12-14T11:48:06;5.80;99.90
20141;DHT22;10231;47.702;9.826;2023-12-14T11:50:32;5.70;99.90
20141;DHT22;10231;47.702;9.826;2023-12-14T11:53:01;5.70;99.90
20141;DHT22;10231;47.702;9.826;2023-12-14T11:55:31;5.70;99.90
20141;DHT22;10231;47.702;9.826;2023-12-14T11:57:57;5.70;99.90
20141;DHT22;10231;47.702;9.826;2023-12-14T12:00:27;5.70;99.90
20141;DHT22;10231;47.702;9.826;2023-12-14T12:05:37;5.70;99.90
20141;DHT22;10231;47.702;9.826;2023-12-14T12:08:03;5.70;99.90
20141;DHT22;10231;47.702;9.826;2023-12-14T12:10:29;5.70;99.90
20141;DHT22;10231;47.702;9.826;2023-12-14T12:13:02;5.70;99.90
20141;DHT22;10231;47.702;9.826;2023-12-14T12:15:28;5.70;99.90
20141;DHT22;10231;47.702;9.826;2023-12-14T12:17:53;5.70;99.90
20141;DHT22;10231;47.702;9.826;2023-12-14T12:20:19;5.80;99.90
20141;DHT22;10231;47.702;9.826;2023-12-14T12:22:45;5.70;99.90
20141;DHT22;10231;47.702;9.826;2023-12-14T12:25:10;5.80;99.90
20141;DHT22;10231;47.702;9.826;2023-12-14T12:27:36;5.70;99.90
20141;DHT22;10231;47.702;9.826;2023-12-14T12:30:01;5.70;99.90
20141;DHT22;10231;47.702;9.826;2023-12-14T12:32:28;5.70;99.90
20141;DHT22;10231;47.702;9.826;2023-12-14T12:34:53;5.70;99.90
20141;DHT22;10231;47.702;9.826;2023-12-14T12:37:19;5.70;99.90
20141;DHT22;10231;47.702;9.826;2023-12-14T12:39:44;5.70;99.90
20141;DHT22;10231;47.702;9.826;2023-12-14T12:42:10;5.70;99.90
20141;DHT22;10231;47.702;9.826;2023-12-14T12:44:35;5.70;99.90
20141;DHT22;10231;47.702;9.826;2023-12-14T12:47:01;5.80;99.90
20141;DHT22;10231;47.702;9.826;2023-12-14T12:49:27;5.80;99.90
20141;DHT22;10231;47.702;9.826;2023-12-14T12:51:52;5.80;99.90
20141;DHT22;10231;47.702;9.826;2023-12-14T12:54:18;5.80;99.90
20141;DHT22;10231;47.702;9.826;2023-12-14T12:56:44;5.80;99.90
20141;DHT22;10231;47.702;9.826;2023-12-14T12:59:10;5.80;99.90
20141;DHT22;10231;47.702;9.826;2023-12-14T13:01:35;5.80;99.90
20141;DHT22;10231;47.702;9.826;2023-12-14T13:04:01;5.80;99.90
20141;DHT22;10231;47.702;9.826;2023-12-14T13:06:26;5.80;99.90
20141;DHT22;10231;47.702;9.826;2023-12-14T13:08:52;5.80;99.90
20141;DHT22;10231;47.702;9.826;2023-12-14T13:11:18;5.70;99.90
20141;DHT22;10231;47.702;9.826;2023-12-14T13:13:43;5.80;99.90
20141;DHT22;10231;47.702;9.826;2023-12-14T13:16:10;5.70;99.90
20141;DHT22;10231;47.702;9.826;2023-12-14T13:18:38;5.80;99.90
20141;DHT22;10231;47.702;9.826;2023-12-14T13:21:04;5.80;99.90
20141;DHT22;10231;47.702;9.826;2023-12-14T13:23:29;5.80;99.90
20141;DHT22;10231;47.702;9.826;2023-12-14T13:25:55;5.80;99.90
20141;DHT22;10231;47.702;9.826;2023-12-14T13:28:21;5.80;99.90
20141;DHT22;10231;47.702;9.826;2023-12-14T13:30:46;5.80;99.90
20141;DHT22;10231;47.702;9.826;2023-12-14T13:33:12;5.80;99.90
20141;DHT22;10231;47.702;9.826;2023-12-14T13:35:38;5.80;99.90
20141;DHT22;10231;47.702;9.826;2023-12-14T13:38:03;5.80;99.90
20141;DHT22;10231;47.702;9.826;2023-12-14T13:40:29;5.80;99.90
20141;DHT22;10231;47.702;9.826;2023-12-14T13:42:55;5.90;99.90
20141;DHT22;10231;47.702;9.826;2023-12-14T13:45:24;5.90;99.90
20141;DHT22;10231;47.702;9.826;2023-12-14T13:47:51;5.90;99.90
20141;DHT22;10231;47.702;9.826;2023-12-14T13:50:16;5.90;99.90
20141;DHT22;10231;47.702;9.826;2023-12-14T13:52:43;5.90;99.90
20141;DHT22;10231;47.702;9.826;2023-12-14T13:55:08;5.90;99.90
20141;DHT22;10231;47.702;9.826;2023-12-14T13:57:34;5.90;99.90
20141;DHT22;10231;47.702;9.826;2023-12-14T14:00:01;5.90;99.90
20141;DHT22;10231;47.702;9.826;2023-12-14T14:02:26;5.90;99.90
20141;DHT22;10231;47.702;9.826;2023-12-14T14:04:54;6.00;99.90
20141;DHT22;10231;47.702;9.826;2023-12-14T14:07:19;5.90;99.90
20141;DHT22;10231;47.702;9.826;2023-12-14T14:09:45;5.90;99.90
20141;DHT22;10231;47.702;9.826;2023-12-14T14:12:10;5.90;99.90
20141;DHT22;10231;47.702;9.826;2023-12-14T14:14:36;5.90;99.90
20141;DHT22;10231;47.702;9.826;2023-12-14T14:17:01;6.00;99.90
20141;DHT22;10231;47.702;9.826;2023-12-14T14:19:27;6.00;99.90
20141;DHT22;10231;47.702;9.826;2023-12-14T14:21:53;6.00;99.90
20141;DHT22;10231;47.702;9.826;2023-12-14T14:24:18;5.90;99.90
20141;DHT22;10231;47.702;9.826;2023-12-14T14:26:44;5.90;99.90
20141;DHT22;10231;47.702;9.826;2023-12-14T14:29:10;5.90;99.90
20141;DHT22;10231;47.702;9.826;2023-12-14T14:31:36;5.90;99.90
20141;DHT22;10231;47.702;9.826;2023-12-14T14:34:02;5.90;99.90
20141;DHT22;10231;47.702;9.826;2023-12-14T14:36:28;5.80;99.90
20141;DHT22;10231;47.702;9.826;2023-12-14T14:38:54;5.80;99.90
20141;DHT22;10231;47.702;9.826;2023-12-14T14:41:20;5.80;99.90
20141;DHT22;10231;47.702;9.826;2023-12-14T14:43:46;5.80;99.90
20141;DHT22;10231;47.702;9.826;2023-12-14T14:46:12;5.70;99.90
20141;DHT22;10231;47.702;9.826;2023-12-14T14:48:37;5.80;99.90
20141;DHT22;10231;47.702;9.826;2023-12-14T14:51:04;5.80;99.90
20141;DHT22;10231;47.702;9.826;2023-12-14T14:53:29;5.80;99.90
20141;DHT22;10231;47.702;9.826;2023-12-14T14:55:55;5.80;99.90
20141;DHT22;10231;47.702;9.826;2023-12-14T14:58:22;5.80;99.90
20141;DHT22;10231;47.702;9.826;2023-12-14T15:00:47;5.80;99.90
20141;DHT22;10231;47.702;9.826;2023-12-14T15:03:13;5.90;99.90
20141;DHT22;10231;47.702;9.826;2023-12-14T15:05:39;5.80;99.90
20141;DHT22;10231;47.702;9.826;2023-12-14T15:08:05;5.70;99.90
20141;DHT22;10231;47.702;9.826;2023-12-14T15:10:32;5.70;99.90
20141;DHT22;10231;47.702;9.826;2023-12-14T15:12:57;5.60;99.90
20141;DHT22;10231;47.702;9.826;2023-12-14T15:15:23;5.50;99.90
20141;DHT22;10231;47.702;9.826;2023-12-14T15:17:48;5.50;99.90
20141;DHT22;10231;47.702;9.826;2023-12-14T15:20:14;5.50;99.90
20141;DHT22;10231;47.702;9.826;2023-12-14T15:22:40;5.50;99.90
20141;DHT22;10231;47.702;9.826;2023-12-14T15:25:05;5.50;99.90
20141;DHT22;10231;47.702;9.826;2023-12-14T15:27:31;5.50;99.90
20141;DHT22;10231;47.702;9.826;2023-12-14T15:29:58;5.50;99.90
20141;DHT22;10231;47.702;9.826;2023-12-14T15:32:24;5.60;99.90
20141;DHT22;10231;47.702;9.826;2023-12-14T15:34:49;5.50;99.90
20141;DHT22;10231;47.702;9.826;2023-12-14T15:37:15;5.60;99.90
20141;DHT22;10231;47.702;9.826;2023-12-14T15:39:41;5.60;99.90
20141;DHT22;10231;47.702;9.826;2023-12-14T15:42:08;5.70;99.90
20141;DHT22;10231;47.702;9.826;2023-12-14T15:44:34;5.70;99.90